sensor_id;sensor_type;location;lat;lon;timestamp;temperature;humidity
17659;DHT22;8948;51.534;8.262;2023-08-20T00:02:23;21.90;70.20
17659;DHT22;8948;51.534;8.262;2023-08-20T00:07:24;22.00;70.60
17659;DHT22;8948;51.534;8.262;2023-08-20T00:12:25;21.90;70.70
17659;DHT22;8948;51.534;8.262;2023-08-20T00:17:26;22.00;71.00
17659;DHT22;8948;51.534;8.262;2023-08-20T00:22:27;22.00;71.10
17659;DHT22;8948;51.534;8.262;2023-08-20T00:27:28;22.10;71.10
17659;DHT22;8948;51.534;8.262;2023-08-20T00:32:28;22.10;71.00
17659;DHT22;8948;51.534;8.262;2023-08-20T00:37:29;22.20;71.30
17659;DHT22;8948;51.534;8.262;2023-08-20T00:42:31;22.20;71.50
17659;DHT22;8948;51.534;8.262;2023-08-20T00:47:31;22.20;71.60
17659;DHT22;8948;51.534;8.262;2023-08-20T00:52:33;22.20;71.50
17659;DHT22;8948;51.534;8.262;2023-08-20T00:57:34;22.10;71.30
17659;DHT22;8948;51.534;8.262;2023-08-20T01:02:35;22.10;71.30
17659;DHT22;8948;51.534;8.262;2023-08-20T01:13:02;21.80;72.00
17659;DHT22;8948;51.534;8.262;2023-08-20T01:18:02;21.80;71.80
17659;DHT22;8948;51.534;8.262;2023-08-20T01:23:39;21.70;72.00
17659;DHT22;8948;51.534;8.262;2023-08-20T01:28:43;21.60;72.20
17659;DHT22;8948;51.534;8.262;2023-08-20T01:33:44;21.60;72.30
17659;DHT22;8948;51.534;8.262;2023-08-20T01:38:44;21.50;72.30
17659;DHT22;8948;51.534;8.262;2023-08-20T01:43:45;21.50;72.30
17659;DHT22;8948;51.534;8.262;2023-08-20T01:48:45;21.40;72.50
17659;DHT22;8948;51.534;8.262;2023-08-20T01:53:46;21.30;72.60
17659;DHT22;8948;51.534;8.262;2023-08-20T01:58:46;21.30;72.50
17659;DHT22;8948;51.534;8.262;2023-08-20T02:03:47;21.40;72.70
17659;DHT22;8948;51.534;8.262;2023-08-20T02:08:47;21.40;72.80
17659;DHT22;8948;51.534;8.262;2023-08-20T02:13:48;21.40;72.80
17659;DHT22;8948;51.534;8.262;2023-08-20T02:18:49;21.40;72.80
17659;DHT22;8948;51.534;8.262;2023-08-20T02:23:49;21.30;72.90
17659;DHT22;8948;51.534;8.262;2023-08-20T02:28:50;21.30;72.80
17659;DHT22;8948;51.534;8.262;2023-08-20T02:33:50;21.30;72.50
17659;DHT22;8948;51.534;8.262;2023-08-20T02:38:51;21.30;72.60
17659;DHT22;8948;51.534;8.262;2023-08-20T02:43:51;21.30;72.40
17659;DHT22;8948;51.534;8.262;2023-08-20T02:48:52;21.20;72.60
17659;DHT22;8948;51.534;8.262;2023-08-20T02:53:52;21.20;73.00
17659;DHT22;8948;51.534;8.262;2023-08-20T02:58:53;21.30;73.20
17659;DHT22;8948;51.534;8.262;2023-08-20T03:03:54;21.30;73.10
17659;DHT22;8948;51.534;8.262;2023-08-20T03:08:54;21.20;73.00
17659;DHT22;8948;51.534;8.262;2023-08-20T03:13:55;21.00;73.70
17659;DHT22;8948;51.534;8.262;2023-08-20T03:18:55;21.00;73.40
17659;DHT22;8948;51.534;8.262;2023-08-20T03:23:56;21.00;73.60
17659;DHT22;8948;51.534;8.262;2023-08-20T03:28:56;20.90;73.60
17659;DHT22;8948;51.534;8.262;2023-08-20T03:33:57;20.80;73.70
17659;DHT22;8948;51.534;8.262;2023-08-20T03:38:58;20.70;74.10
17659;DHT22;8948;51.534;8.262;2023-08-20T03:43:59;20.70;74.50
17659;DHT22;8948;51.534;8.262;2023-08-20T03:48:59;20.60;74.30
17659;DHT22;8948;51.534;8.262;2023-08-20T03:54:00;20.60;74.40
17659;DHT22;8948;51.534;8.262;2023-08-20T03:59:01;20.60;74.10
17659;DHT22;8948;51.534;8.262;2023-08-20T04:04:01;20.70;74.50
17659;DHT22;8948;51.534;8.262;2023-08-20T04:09:02;20.70;74.30
17659;DHT22;8948;51.534;8.262;2023-08-20T04:14:03;20.70;74.00
17659;DHT22;8948;51.534;8.262;2023-08-20T04:19:03;20.70;74.10
17659;DHT22;8948;51.534;8.262;2023-08-20T04:24:04;20.60;74.90
17659;DHT22;8948;51.534;8.262;2023-08-20T04:29:05;20.60;74.30
17659;DHT22;8948;51.534;8.262;2023-08-20T04:34:06;20.60;75.40
17659;DHT22;8948;51.534;8.262;2023-08-20T04:39:06;20.80;74.30
17659;DHT22;8948;51.534;8.262;2023-08-20T04:44:07;20.80;74.00
17659;DHT22;8948;51.534;8.262;2023-08-20T04:49:08;20.70;74.70
17659;DHT22;8948;51.534;8.262;2023-08-20T04:54:08;20.70;74.00
17659;DHT22;8948;51.534;8.262;2023-08-20T04:59:09;20.80;74.40
17659;DHT22;8948;51.534;8.262;2023-08-20T05:04:09;20.90;74.10
17659;DHT22;8948;51.534;8.262;2023-08-20T05:09:10;20.90;73.50
17659;DHT22;8948;51.534;8.262;2023-08-20T05:14:11;20.90;73.60
17659;DHT22;8948;51.534;8.262;2023-08-20T05:19:11;20.90;73.70
17659;DHT22;8948;51.534;8.262;2023-08-20T05:24:12;21.00;73.60
17659;DHT22;8948;51.534;8.262;2023-08-20T05:29:12;21.00;74.00
17659;DHT22;8948;51.534;8.262;2023-08-20T05:34:13;21.10;73.90
17659;DHT22;8948;51.534;8.262;2023-08-20T05:39:13;21.00;74.10
17659;DHT22;8948;51.534;8.262;2023-08-20T05:44:14;21.00;75.10
17659;DHT22;8948;51.534;8.262;2023-08-20T05:49:15;21.00;75.70
17659;DHT22;8948;51.534;8.262;2023-08-20T05:54:19;21.10;75.80
17659;DHT22;8948;51.534;8.262;2023-08-20T05:59:19;21.20;76.60
17659;DHT22;8948;51.534;8.262;2023-08-20T06:04:20;21.30;77.10
17659;DHT22;8948;51.534;8.262;2023-08-20T06:09:21;21.30;77.60
17659;DHT22;8948;51.534;8.262;2023-08-20T06:14:21;21.50;77.60
17659;DHT22;8948;51.534;8.262;2023-08-20T06:19:22;21.80;77.00
17659;DHT22;8948;51.534;8.262;2023-08-20T06:24:22;22.00;75.90
17659;DHT22;8948;51.534;8.262;2023-08-20T06:29:23;22.00;75.80
17659;DHT22;8948;51.534;8.262;2023-08-20T06:34:23;22.10;77.00
17659;DHT22;8948;51.534;8.262;2023-08-20T06:39:24;22.10;76.80
17659;DHT22;8948;51.534;8.262;2023-08-20T06:44:25;22.20;75.70
17659;DHT22;8948;51.534;8.262;2023-08-20T06:49:25;22.20;76.40
17659;DHT22;8948;51.534;8.262;2023-08-20T06:54:26;22.40;76.20
17659;DHT22;8948;51.534;8.262;2023-08-20T06:59:26;22.70;76.00
17659;DHT22;8948;51.534;8.262;2023-08-20T07:04:27;22.80;74.80
17659;DHT22;8948;51.534;8.262;2023-08-20T07:09:28;22.80;75.90
17659;DHT22;8948;51.534;8.262;2023-08-20T07:14:28;22.90;75.40
17659;DHT22;8948;51.534;8.262;2023-08-20T07:19:29;23.20;75.10
17659;DHT22;8948;51.534;8.262;2023-08-20T07:24:29;23.20;73.50
17659;DHT22;8948;51.534;8.262;2023-08-20T07:29:35;23.50;73.90
17659;DHT22;8948;51.534;8.262;2023-08-20T07:34:35;23.80;71.40
17659;DHT22;8948;51.534;8.262;2023-08-20T07:39:36;23.80;74.10
17659;DHT22;8948;51.534;8.262;2023-08-20T07:44:36;24.00;72.50
17659;DHT22;8948;51.534;8.262;2023-08-20T07:49:37;24.30;71.10
17659;DHT22;8948;51.534;8.262;2023-08-20T07:54:37;24.50;71.00
17659;DHT22;8948;51.534;8.262;2023-08-20T07:59:38;24.70;71.60
17659;DHT22;8948;51.534;8.262;2023-08-20T08:04:38;24.90;71.10
17659;DHT22;8948;51.534;8.262;2023-08-20T08:09:40;25.20;70.50
17659;DHT22;8948;51.534;8.262;2023-08-20T08:14:40;25.50;68.20
17659;DHT22;8948;51.534;8.262;2023-08-20T08:19:41;25.60;67.40
17659;DHT22;8948;51.534;8.262;2023-08-20T08:24:41;25.80;67.30
17659;DHT22;8948;51.534;8.262;2023-08-20T08:29:42;26.10;65.80
17659;DHT22;8948;51.534;8.262;2023-08-20T08:34:44;26.20;65.30
17659;DHT22;8948;51.534;8.262;2023-08-20T08:39:45;26.50;63.30
17659;DHT22;8948;51.534;8.262;2023-08-20T08:44:46;26.60;64.50
17659;DHT22;8948;51.534;8.262;2023-08-20T08:49:48;26.60;64.20
17659;DHT22;8948;51.534;8.262;2023-08-20T08:54:48;26.90;63.30
17659;DHT22;8948;51.534;8.262;2023-08-20T08:59:49;27.30;61.40
17659;DHT22;8948;51.534;8.262;2023-08-20T09:04:50;27.70;59.60
17659;DHT22;8948;51.534;8.262;2023-08-20T09:09:56;27.90;58.40
17659;DHT22;8948;51.534;8.262;2023-08-20T09:14:57;28.20;56.80
17659;DHT22;8948;51.534;8.262;2023-08-20T09:20:00;28.10;58.70
17659;DHT22;8948;51.534;8.262;2023-08-20T09:25:01;27.90;57.90
17659;DHT22;8948;51.534;8.262;2023-08-20T09:30:03;28.20;58.80
17659;DHT22;8948;51.534;8.262;2023-08-20T09:35:04;28.20;57.90
17659;DHT22;8948;51.534;8.262;2023-08-20T09:40:05;28.30;57.20
17659;DHT22;8948;51.534;8.262;2023-08-20T09:45:07;28.00;57.60
17659;DHT22;8948;51.534;8.262;2023-08-20T09:50:10;28.00;56.50
17659;DHT22;8948;51.534;8.262;2023-08-20T09:55:21;28.50;55.30
17659;DHT22;8948;51.534;8.262;2023-08-20T10:00:22;28.60;55.70
17659;DHT22;8948;51.534;8.262;2023-08-20T10:05:23;28.00;55.90
17659;DHT22;8948;51.534;8.262;2023-08-20T10:10:24;28.10;58.40
17659;DHT22;8948;51.534;8.262;2023-08-20T10:15:26;28.70;55.20
17659;DHT22;8948;51.534;8.262;2023-08-20T10:20:29;29.10;55.60
17659;DHT22;8948;51.534;8.262;2023-08-20T10:25:30;29.30;54.10
17659;DHT22;8948;51.534;8.262;2023-08-20T10:30:31;29.80;54.00
17659;DHT22;8948;51.534;8.262;2023-08-20T10:35:50;30.00;51.60
17659;DHT22;8948;51.534;8.262;2023-08-20T10:46:23;30.50;52.30
17659;DHT22;8948;51.534;8.262;2023-08-20T10:56:48;30.60;52.40
17659;DHT22;8948;51.534;8.262;2023-08-20T11:01:50;30.30;52.90
17659;DHT22;8948;51.534;8.262;2023-08-20T11:06:54;30.40;54.30
17659;DHT22;8948;51.534;8.262;2023-08-20T11:11:55;30.80;49.40
17659;DHT22;8948;51.534;8.262;2023-08-20T11:16:56;30.10;52.50
17659;DHT22;8948;51.534;8.262;2023-08-20T11:21:57;29.90;51.90
17659;DHT22;8948;51.534;8.262;2023-08-20T11:26:57;30.20;52.00
17659;DHT22;8948;51.534;8.262;2023-08-20T11:31:58;30.20;48.40
17659;DHT22;8948;51.534;8.262;2023-08-20T11:37:01;30.50;49.90
17659;DHT22;8948;51.534;8.262;2023-08-20T11:42:03;31.00;51.00
17659;DHT22;8948;51.534;8.262;2023-08-20T11:47:13;30.70;50.60
17659;DHT22;8948;51.534;8.262;2023-08-20T11:52:14;31.10;50.10
17659;DHT22;8948;51.534;8.262;2023-08-20T11:57:15;31.20;48.10
17659;DHT22;8948;51.534;8.262;2023-08-20T12:02:25;31.10;51.30
17659;DHT22;8948;51.534;8.262;2023-08-20T12:07:26;31.50;48.30
17659;DHT22;8948;51.534;8.262;2023-08-20T12:12:27;31.50;49.00
17659;DHT22;8948;51.534;8.262;2023-08-20T12:17:28;31.40;46.70
17659;DHT22;8948;51.534;8.262;2023-08-20T12:22:28;30.90;48.20
17659;DHT22;8948;51.534;8.262;2023-08-20T12:27:29;30.40;46.80
17659;DHT22;8948;51.534;8.262;2023-08-20T12:32:29;30.10;50.50
17659;DHT22;8948;51.534;8.262;2023-08-20T12:37:30;29.90;51.00
17659;DHT22;8948;51.534;8.262;2023-08-20T12:42:30;29.60;49.90
17659;DHT22;8948;51.534;8.262;2023-08-20T12:47:31;29.60;51.50
17659;DHT22;8948;51.534;8.262;2023-08-20T12:52:32;29.70;50.90
17659;DHT22;8948;51.534;8.262;2023-08-20T12:57:35;29.70;50.10
17659;DHT22;8948;51.534;8.262;2023-08-20T13:02:36;29.80;50.10
17659;DHT22;8948;51.534;8.262;2023-08-20T13:07:37;30.30;51.50
17659;DHT22;8948;51.534;8.262;2023-08-20T13:12:39;30.70;51.10
17659;DHT22;8948;51.534;8.262;2023-08-20T13:17:41;30.60;48.70
17659;DHT22;8948;51.534;8.262;2023-08-20T13:22:42;30.20;50.00
17659;DHT22;8948;51.534;8.262;2023-08-20T13:27:44;30.50;50.00
17659;DHT22;8948;51.534;8.262;2023-08-20T13:32:44;30.80;49.30
17659;DHT22;8948;51.534;8.262;2023-08-20T13:37:45;31.40;47.30
17659;DHT22;8948;51.534;8.262;2023-08-20T13:42:45;31.90;49.60
17659;DHT22;8948;51.534;8.262;2023-08-20T13:47:46;32.40;47.10
17659;DHT22;8948;51.534;8.262;2023-08-20T13:52:47;32.80;47.20
17659;DHT22;8948;51.534;8.262;2023-08-20T13:57:47;32.00;45.60
17659;DHT22;8948;51.534;8.262;2023-08-20T14:02:48;31.40;47.10
17659;DHT22;8948;51.534;8.262;2023-08-20T14:07:48;31.50;49.50
17659;DHT22;8948;51.534;8.262;2023-08-20T14:12:49;31.10;49.30
17659;DHT22;8948;51.534;8.262;2023-08-20T14:17:49;30.70;49.80
17659;DHT22;8948;51.534;8.262;2023-08-20T14:22:50;30.90;51.20
17659;DHT22;8948;51.534;8.262;2023-08-20T14:27:50;31.60;47.90
17659;DHT22;8948;51.534;8.262;2023-08-20T14:32:51;32.10;49.60
17659;DHT22;8948;51.534;8.262;2023-08-20T14:37:53;32.10;46.30
17659;DHT22;8948;51.534;8.262;2023-08-20T14:42:54;32.00;48.00
17659;DHT22;8948;51.534;8.262;2023-08-20T14:47:55;32.50;47.50
17659;DHT22;8948;51.534;8.262;2023-08-20T14:52:55;32.80;46.80
17659;DHT22;8948;51.534;8.262;2023-08-20T14:57:56;32.50;46.30
17659;DHT22;8948;51.534;8.262;2023-08-20T15:02:57;32.50;48.50
17659;DHT22;8948;51.534;8.262;2023-08-20T15:07:57;32.80;47.40
17659;DHT22;8948;51.534;8.262;2023-08-20T15:12:58;33.10;45.70
17659;DHT22;8948;51.534;8.262;2023-08-20T15:17:58;32.10;45.90
17659;DHT22;8948;51.534;8.262;2023-08-20T15:22:59;31.30;47.80
17659;DHT22;8948;51.534;8.262;2023-08-20T15:27:59;30.60;49.40
17659;DHT22;8948;51.534;8.262;2023-08-20T15:33:00;30.50;50.20
17659;DHT22;8948;51.534;8.262;2023-08-20T15:38:00;30.20;50.60
17659;DHT22;8948;51.534;8.262;2023-08-20T15:43:01;30.20;49.10
17659;DHT22;8948;51.534;8.262;2023-08-20T15:48:02;30.50;50.20
17659;DHT22;8948;51.534;8.262;2023-08-20T15:53:05;30.50;50.00
17659;DHT22;8948;51.534;8.262;2023-08-20T15:58:06;30.90;49.40
17659;DHT22;8948;51.534;8.262;2023-08-20T16:03:07;31.00;48.40
17659;DHT22;8948;51.534;8.262;2023-08-20T16:08:09;31.30;48.10
17659;DHT22;8948;51.534;8.262;2023-08-20T16:13:09;31.40;47.60
17659;DHT22;8948;51.534;8.262;2023-08-20T16:18:10;31.10;48.30
17659;DHT22;8948;51.534;8.262;2023-08-20T16:23:10;30.80;48.60
17659;DHT22;8948;51.534;8.262;2023-08-20T16:28:11;30.50;49.60
17659;DHT22;8948;51.534;8.262;2023-08-20T16:33:12;30.60;50.20
17659;DHT22;8948;51.534;8.262;2023-08-20T16:38:12;30.50;49.60
17659;DHT22;8948;51.534;8.262;2023-08-20T16:43:13;30.10;50.10
17659;DHT22;8948;51.534;8.262;2023-08-20T16:48:13;30.00;51.20
17659;DHT22;8948;51.534;8.262;2023-08-20T16:53:14;29.90;51.50
17659;DHT22;8948;51.534;8.262;2023-08-20T16:58:16;29.70;50.90
17659;DHT22;8948;51.534;8.262;2023-08-20T17:03:16;29.60;51.90
17659;DHT22;8948;51.534;8.262;2023-08-20T17:08:17;29.40;51.60
17659;DHT22;8948;51.534;8.262;2023-08-20T17:13:18;29.10;52.50
17659;DHT22;8948;51.534;8.262;2023-08-20T17:18:18;29.00;52.30
17659;DHT22;8948;51.534;8.262;2023-08-20T17:23:19;28.90;53.10
17659;DHT22;8948;51.534;8.262;2023-08-20T17:28:20;28.90;52.80
17659;DHT22;8948;51.534;8.262;2023-08-20T17:33:20;28.60;53.30
17659;DHT22;8948;51.534;8.262;2023-08-20T17:38:21;28.70;54.00
17659;DHT22;8948;51.534;8.262;2023-08-20T17:43:23;28.80;53.50
17659;DHT22;8948;51.534;8.262;2023-08-20T17:48:24;28.60;54.00
17659;DHT22;8948;51.534;8.262;2023-08-20T17:53:25;28.60;54.00
17659;DHT22;8948;51.534;8.262;2023-08-20T17:58:29;28.60;53.90
17659;DHT22;8948;51.534;8.262;2023-08-20T18:03:29;28.60;53.80
17659;DHT22;8948;51.534;8.262;2023-08-20T18:08:30;28.50;53.80
17659;DHT22;8948;51.534;8.262;2023-08-20T18:13:30;28.40;54.10
17659;DHT22;8948;51.534;8.262;2023-08-20T18:18:31;28.30;54.00
17659;DHT22;8948;51.534;8.262;2023-08-20T18:23:32;28.20;55.20
17659;DHT22;8948;51.534;8.262;2023-08-20T18:28:35;28.20;55.10
17659;DHT22;8948;51.534;8.262;2023-08-20T18:33:36;28.10;55.30
17659;DHT22;8948;51.534;8.262;2023-08-20T18:38:38;27.90;55.70
17659;DHT22;8948;51.534;8.262;2023-08-20T18:43:40;27.60;56.30
17659;DHT22;8948;51.534;8.262;2023-08-20T18:48:40;27.50;56.50
17659;DHT22;8948;51.534;8.262;2023-08-20T18:53:41;27.30;57.00
17659;DHT22;8948;51.534;8.262;2023-08-20T18:58:42;27.20;57.50
17659;DHT22;8948;51.534;8.262;2023-08-20T19:03:42;27.00;57.90
17659;DHT22;8948;51.534;8.262;2023-08-20T19:08:43;26.90;58.60
17659;DHT22;8948;51.534;8.262;2023-08-20T19:13:43;26.70;59.40
17659;DHT22;8948;51.534;8.262;2023-08-20T19:18:44;26.60;59.70
17659;DHT22;8948;51.534;8.262;2023-08-20T19:23:45;26.40;59.90
17659;DHT22;8948;51.534;8.262;2023-08-20T19:28:46;26.30;60.00
17659;DHT22;8948;51.534;8.262;2023-08-20T19:33:47;26.20;60.40
17659;DHT22;8948;51.534;8.262;2023-08-20T19:38:47;26.00;60.30
17659;DHT22;8948;51.534;8.262;2023-08-20T19:43:48;25.90;60.60
17659;DHT22;8948;51.534;8.262;2023-08-20T19:48:48;25.80;60.50
17659;DHT22;8948;51.534;8.262;2023-08-20T19:53:49;25.80;60.70
17659;DHT22;8948;51.534;8.262;2023-08-20T19:58:49;25.70;61.00
17659;DHT22;8948;51.534;8.262;2023-08-20T20:03:51;25.60;61.10
17659;DHT22;8948;51.534;8.262;2023-08-20T20:08:52;25.50;61.10
17659;DHT22;8948;51.534;8.262;2023-08-20T20:13:53;25.40;61.30
17659;DHT22;8948;51.534;8.262;2023-08-20T20:18:53;25.30;61.40
17659;DHT22;8948;51.534;8.262;2023-08-20T20:23:54;25.20;62.20
17659;DHT22;8948;51.534;8.262;2023-08-20T20:28:54;25.00;62.70
17659;DHT22;8948;51.534;8.262;2023-08-20T20:33:56;24.90;62.60
17659;DHT22;8948;51.534;8.262;2023-08-20T20:38:57;24.80;62.90
17659;DHT22;8948;51.534;8.262;2023-08-20T20:43:57;24.70;62.60
17659;DHT22;8948;51.534;8.262;2023-08-20T20:48:58;24.60;62.80
17659;DHT22;8948;51.534;8.262;2023-08-20T20:53:58;24.50;62.90
17659;DHT22;8948;51.534;8.262;2023-08-20T20:58:59;24.40;63.00
17659;DHT22;8948;51.534;8.262;2023-08-20T21:03:59;24.30;63.30
17659;DHT22;8948;51.534;8.262;2023-08-20T21:09:00;24.30;62.60
17659;DHT22;8948;51.534;8.262;2023-08-20T21:14:01;24.20;63.20
17659;DHT22;8948;51.534;8.262;2023-08-20T21:19:01;24.00;63.20
17659;DHT22;8948;51.534;8.262;2023-08-20T21:24:02;24.00;63.00
17659;DHT22;8948;51.534;8.262;2023-08-20T21:29:03;23.90;63.30
17659;DHT22;8948;51.534;8.262;2023-08-20T21:34:03;23.90;63.30
17659;DHT22;8948;51.534;8.262;2023-08-20T21:39:04;23.80;63.60
17659;DHT22;8948;51.534;8.262;2023-08-20T21:44:05;23.70;63.90
17659;DHT22;8948;51.534;8.262;2023-08-20T21:49:05;23.60;63.40
17659;DHT22;8948;51.534;8.262;2023-08-20T21:54:06;23.50;63.70
17659;DHT22;8948;51.534;8.262;2023-08-20T21:59:06;23.50;63.80
17659;DHT22;8948;51.534;8.262;2023-08-20T22:04:07;23.50;63.90
17659;DHT22;8948;51.534;8.262;2023-08-20T22:09:08;23.40;63.90
17659;DHT22;8948;51.534;8.262;2023-08-20T22:14:08;23.30;63.90
17659;DHT22;8948;51.534;8.262;2023-08-20T22:19:09;23.20;63.90
17659;DHT22;8948;51.534;8.262;2023-08-20T22:24:11;23.10;63.90
17659;DHT22;8948;51.534;8.262;2023-08-20T22:29:14;23.10;64.20
17659;DHT22;8948;51.534;8.262;2023-08-20T22:34:15;23.00;64.60
17659;DHT22;8948;51.534;8.262;2023-08-20T22:39:16;23.00;64.00
17659;DHT22;8948;51.534;8.262;2023-08-20T22:44:17;22.90;64.30
17659;DHT22;8948;51.534;8.262;2023-08-20T22:49:17;22.90;64.30
17659;DHT22;8948;51.534;8.262;2023-08-20T22:54:18;22.90;64.00
17659;DHT22;8948;51.534;8.262;2023-08-20T22:59:18;22.80;64.00
17659;DHT22;8948;51.534;8.262;2023-08-20T23:04:19;22.80;64.10
17659;DHT22;8948;51.534;8.262;2023-08-20T23:09:20;22.80;64.10
17659;DHT22;8948;51.534;8.262;2023-08-20T23:14:20;22.70;64.30
17659;DHT22;8948;51.534;8.262;2023-08-20T23:19:21;22.70;64.40
17659;DHT22;8948;51.534;8.262;2023-08-20T23:24:22;22.60;64.60
17659;DHT22;8948;51.534;8.262;2023-08-20T23:29:22;22.70;64.60
17659;DHT22;8948;51.534;8.262;2023-08-20T23:34:23;22.70;64.60
17659;DHT22;8948;51.534;8.262;2023-08-20T23:39:24;22.70;64.80
17659;DHT22;8948;51.534;8.262;2023-08-20T23:44:24;22.70;64.80
17659;DHT22;8948;51.534;8.262;2023-08-20T23:49:25;22.70;65.10
17659;DHT22;8948;51.534;8.262;2023-08-20T23:54:25;22.60;65.20
17659;DHT22;8948;51.534;8.262;2023-08-20T23:59:26;22.50;65.50
